Time;durP1;ratioP1;P1;durP2;ratioP2;P2;SDS_P1;SDS_P2;PMS_P1;PMS_P2;Temp;Humidity;BMP_temperature;BMP_pressure;BME280_temperature;BME280_humidity;BME280_pressure;Samples;Min_cycle;Max_cycle;Signal;HPM_P1;HPM_P2
2024/01/29 00:00:52;;;;;;;5.82;4.00;;;1.50;99.90;;;;;;5046756;28;20028;-68
2024/01/29 00:03:17;;;;;;;7.20;4.20;;;1.40;99.90;;;;;;5046306;28;20572;-68
2024/01/29 00:05:44;;;;;;;8.57;4.05;;;1.30;99.90;;;;;;5042738;28;20052;-68
2024/01/29 00:08:10;;;;;;;9.27;4.85;;;1.30;99.90;;;;;;5046240;28;20039;-68
2024/01/29 00:10:36;;;;;;;8.18;4.63;;;1.40;99.90;;;;;;5048104;28;20021;-68
2024/01/29 00:13:02;;;;;;;12.38;5.05;;;1.50;99.90;;;;;;5041825;28;20859;-68
2024/01/29 00:15:27;;;;;;;9.73;4.85;;;1.60;99.90;;;;;;5040660;28;20036;-68
2024/01/29 00:17:53;;;;;;;8.48;4.70;;;1.80;99.90;;;;;;5045851;28;20116;-68
2024/01/29 00:20:18;;;;;;;7.88;5.50;;;1.80;99.90;;;;;;5044551;28;20052;-68
2024/01/29 00:22:44;;;;;;;9.57;5.05;;;1.90;99.90;;;;;;5039474;28;20041;-68
2024/01/29 00:25:10;;;;;;;10.18;5.50;;;1.80;99.90;;;;;;5044901;28;20082;-68
2024/01/29 00:27:35;;;;;;;8.15;5.00;;;1.70;99.90;;;;;;5050515;28;20740;-68
2024/01/29 00:30:01;;;;;;;11.60;6.00;;;1.50;99.90;;;;;;5044509;28;20033;-68
2024/01/29 00:32:28;;;;;;;9.45;5.18;;;1.50;99.90;;;;;;5040390;28;20289;-68
2024/01/29 00:34:53;;;;;;;10.48;5.50;;;1.50;99.90;;;;;;5042093;28;20046;-68
2024/01/29 00:37:22;;;;;;;11.73;6.15;;;1.40;99.90;;;;;;5041467;28;20025;-67
2024/01/29 00:39:48;;;;;;;9.45;5.65;;;1.30;99.90;;;;;;5042534;28;20565;-68
2024/01/29 00:42:14;;;;;;;8.20;4.60;;;1.30;99.90;;;;;;5042530;28;20044;-67
2024/01/29 00:44:40;;;;;;;14.00;6.53;;;1.30;99.90;;;;;;5040444;28;20021;-68
2024/01/29 00:47:06;;;;;;;10.10;5.72;;;1.30;99.90;;;;;;5042795;28;20036;-68
2024/01/29 00:49:32;;;;;;;8.90;5.35;;;1.30;99.90;;;;;;5038495;28;21066;-68
2024/01/29 00:51:58;;;;;;;9.75;5.30;;;1.30;99.90;;;;;;5043500;28;20098;-68
2024/01/29 00:54:24;;;;;;;8.15;4.55;;;1.30;99.90;;;;;;5042001;28;20033;-68
2024/01/29 00:56:50;;;;;;;9.60;5.30;;;1.20;99.90;;;;;;5038819;28;20079;-67
2024/01/29 00:59:16;;;;;;;11.48;5.40;;;1.20;99.90;;;;;;5044863;28;20036;-67
2024/01/29 01:01:41;;;;;;;11.60;6.32;;;1.10;99.90;;;;;;5039958;28;20033;-68
2024/01/29 01:04:07;;;;;;;10.88;6.28;;;1.00;99.90;;;;;;5039322;28;20133;-68
2024/01/29 01:06:33;;;;;;;10.85;5.85;;;0.90;99.90;;;;;;5044791;28;20037;-68
2024/01/29 01:08:59;;;;;;;12.50;6.75;;;0.60;99.90;;;;;;5028093;28;20587;-68
2024/01/29 01:11:24;;;;;;;12.57;6.72;;;0.40;99.90;;;;;;5039136;28;20851;-68
2024/01/29 01:13:51;;;;;;;10.90;6.70;;;0.30;99.90;;;;;;5044053;28;20328;-68
2024/01/29 01:16:17;;;;;;;13.65;7.63;;;0.20;99.90;;;;;;5040170;28;20131;-67
2024/01/29 01:18:43;;;;;;;12.32;7.65;;;0.40;99.90;;;;;;5033638;28;20039;-68
2024/01/29 01:21:09;;;;;;;13.05;8.45;;;0.30;99.90;;;;;;5041749;28;20119;-68
2024/01/29 01:23:34;;;;;;;16.33;8.55;;;0.20;99.90;;;;;;5042504;28;20040;-68
2024/01/29 01:26:00;;;;;;;16.25;8.65;;;0.30;99.90;;;;;;5036129;28;20097;-68
2024/01/29 01:28:25;;;;;;;15.52;8.65;;;0.40;99.90;;;;;;5042006;28;20063;-68
2024/01/29 01:30:51;;;;;;;16.23;8.43;;;0.60;99.90;;;;;;5036865;28;20033;-67
2024/01/29 01:33:16;;;;;;;18.10;9.52;;;0.70;99.90;;;;;;5040475;28;20072;-68
2024/01/29 01:35:42;;;;;;;13.98;8.23;;;0.80;99.90;;;;;;5043611;28;20029;-68
2024/01/29 01:38:08;;;;;;;13.82;9.75;;;0.80;99.90;;;;;;5043752;28;20051;-68
2024/01/29 01:40:33;;;;;;;16.73;9.23;;;1.00;99.90;;;;;;5040950;28;20036;-68
2024/01/29 01:42:59;;;;;;;13.38;8.02;;;1.00;99.90;;;;;;5037429;28;20132;-68
2024/01/29 01:45:24;;;;;;;23.95;10.32;;;0.90;99.90;;;;;;5043030;28;20037;-67
2024/01/29 01:47:51;;;;;;;17.63;9.10;;;0.90;99.90;;;;;;5031187;28;20568;-68
2024/01/29 01:50:17;;;;;;;16.90;9.00;;;0.70;99.90;;;;;;5041876;28;20874;-68
2024/01/29 01:52:43;;;;;;;13.73;8.05;;;0.40;99.90;;;;;;5032181;28;20145;-67
2024/01/29 01:55:08;;;;;;;14.73;8.15;;;0.30;99.90;;;;;;5039807;28;20052;-67
2024/01/29 01:57:36;;;;;;;14.48;8.20;;;0.30;99.90;;;;;;5043737;28;20025;-67
2024/01/29 02:00:03;;;;;;;13.00;8.80;;;0.30;99.90;;;;;;5042781;28;20025;-67
2024/01/29 02:02:29;;;;;;;15.32;9.50;;;0.30;99.90;;;;;;5041366;28;20127;-66
2024/01/29 02:04:55;;;;;;;15.23;9.25;;;0.40;99.90;;;;;;5040205;28;20032;-67
2024/01/29 02:07:21;;;;;;;15.27;9.40;;;0.50;99.90;;;;;;5044883;28;20064;-67
2024/01/29 02:09:47;;;;;;;17.52;10.82;;;0.50;99.90;;;;;;5045215;28;20106;-67
2024/01/29 02:12:13;;;;;;;18.30;10.00;;;0.40;99.90;;;;;;5044577;28;20060;-67
2024/01/29 02:14:39;;;;;;;16.35;9.40;;;0.40;99.90;;;;;;5048282;28;20481;-67
2024/01/29 02:17:04;;;;;;;15.68;8.25;;;0.30;99.90;;;;;;5042862;28;20032;-67
2024/01/29 02:19:30;;;;;;;12.73;8.23;;;0.10;99.90;;;;;;5046381;28;20052;-65
2024/01/29 02:21:56;;;;;;;13.63;8.18;;;0.00;99.90;;;;;;5042844;28;20032;-64
2024/01/29 02:24:22;;;;;;;14.93;8.50;;;0.10;99.90;;;;;;5040122;28;20608;-65
2024/01/29 02:26:48;;;;;;;15.55;9.30;;;0.20;99.90;;;;;;5044111;28;20036;-65
2024/01/29 02:29:14;;;;;;;17.70;9.90;;;0.20;99.90;;;;;;5034851;28;20052;-64
2024/01/29 02:31:40;;;;;;;15.57;9.85;;;0.20;99.90;;;;;;5048260;28;20032;-64
2024/01/29 02:34:05;;;;;;;18.10;10.48;;;0.10;99.90;;;;;;5048468;28;20586;-64
2024/01/29 02:36:34;;;;;;;18.77;10.52;;;0.00;99.90;;;;;;5050990;28;20044;-64
2024/01/29 02:38:59;;;;;;;15.85;9.60;;;-0.10;99.90;;;;;;5049588;28;20024;-65
2024/01/29 02:41:25;;;;;;;16.17;8.85;;;-0.30;99.90;;;;;;5049491;28;20043;-65
2024/01/29 02:43:50;;;;;;;16.30;10.20;;;-0.50;99.90;;;;;;5053772;28;20070;-65
2024/01/29 02:46:18;;;;;;;14.93;9.30;;;-0.60;99.90;;;;;;5050247;28;20471;-65
2024/01/29 02:48:43;;;;;;;14.95;9.00;;;-0.50;99.90;;;;;;5049578;28;20036;-64
2024/01/29 02:51:09;;;;;;;14.23;8.70;;;-0.40;99.90;;;;;;5048598;28;20104;-67
2024/01/29 02:53:34;;;;;;;12.70;9.05;;;-0.30;99.90;;;;;;5051273;28;20041;-64
2024/01/29 02:56:00;;;;;;;11.48;8.52;;;-0.30;99.90;;;;;;5048950;28;20047;-68
2024/01/29 02:58:26;;;;;;;13.85;8.48;;;-0.30;99.90;;;;;;5048736;28;20786;-64
2024/01/29 03:00:51;;;;;;;13.05;8.40;;;-0.30;99.90;;;;;;5048508;28;20021;-65
2024/01/29 03:03:17;;;;;;;14.52;8.95;;;-0.20;99.90;;;;;;5050435;28;20123;-64
2024/01/29 03:05:42;;;;;;;14.13;8.35;;;-0.10;99.90;;;;;;5043645;28;20112;-64
2024/01/29 03:08:08;;;;;;;13.35;8.38;;;-0.10;99.90;;;;;;5050262;28;20106;-65
2024/01/29 03:10:34;;;;;;;13.63;7.78;;;-0.10;99.90;;;;;;5045840;28;20036;-64
2024/01/29 03:12:59;;;;;;;10.52;6.78;;;-0.10;99.90;;;;;;5054033;28;20024;-65
2024/01/29 03:15:25;;;;;;;13.32;7.80;;;-0.20;99.90;;;;;;5050003;28;20107;-64
2024/01/29 03:17:51;;;;;;;12.40;7.63;;;-0.20;99.90;;;;;;5051306;28;20067;-64
2024/01/29 03:20:17;;;;;;;13.07;7.65;;;-0.20;99.90;;;;;;5050897;28;20505;-64
2024/01/29 03:22:42;;;;;;;11.75;6.60;;;-0.20;99.90;;;;;;5048966;28;20045;-65
2024/01/29 03:25:08;;;;;;;11.15;7.25;;;-0.20;99.90;;;;;;5045816;28;20083;-64
2024/01/29 03:27:34;;;;;;;13.18;7.35;;;-0.10;99.90;;;;;;5027567;28;20190;-64
2024/01/29 03:29:59;;;;;;;11.13;6.93;;;-0.10;99.90;;;;;;5050769;28;20031;-64
2024/01/29 03:32:25;;;;;;;10.80;6.45;;;-0.20;99.90;;;;;;5049605;28;20585;-65
2024/01/29 03:34:51;;;;;;;12.52;5.47;;;-0.20;99.90;;;;;;5047939;28;20024;-64
2024/01/29 03:37:16;;;;;;;9.70;5.75;;;-0.30;99.90;;;;;;5051276;28;20033;-65
2024/01/29 03:39:42;;;;;;;11.32;6.32;;;-0.40;99.90;;;;;;5046890;28;20115;-64
2024/01/29 03:42:07;;;;;;;11.85;6.75;;;-0.40;99.90;;;;;;5046464;28;20516;-65
2024/01/29 03:44:33;;;;;;;10.88;6.57;;;-0.40;99.90;;;;;;5049554;28;20025;-65
2024/01/29 03:46:59;;;;;;;17.85;8.18;;;-0.30;99.90;;;;;;5041601;28;20432;-65
2024/01/29 03:49:24;;;;;;;12.57;7.75;;;-0.30;99.90;;;;;;5050889;28;20044;-65
2024/01/29 03:51:50;;;;;;;14.38;7.55;;;-0.20;99.90;;;;;;5046662;28;20025;-65
2024/01/29 03:54:15;;;;;;;13.75;8.32;;;-0.20;99.90;;;;;;5050958;28;20077;-65
2024/01/29 03:56:41;;;;;;;14.77;8.02;;;-0.10;99.90;;;;;;5046099;28;20063;-65
2024/01/29 03:59:10;;;;;;;8.63;5.72;;;-0.20;99.90;;;;;;5046902;28;20041;-64
2024/01/29 04:01:37;;;;;;;6.40;4.43;;;-0.20;99.90;;;;;;5043613;28;20580;-65
2024/01/29 04:04:03;;;;;;;6.07;4.28;;;-0.20;99.90;;;;;;5046555;28;20089;-65
2024/01/29 04:06:28;;;;;;;7.63;4.00;;;-0.40;99.90;;;;;;5045834;28;20513;-64
2024/01/29 04:08:54;;;;;;;7.65;3.47;;;-0.40;99.90;;;;;;5044989;28;20878;-64
2024/01/29 04:11:20;;;;;;;5.95;3.97;;;-0.50;99.90;;;;;;5049455;28;20385;-64
2024/01/29 04:13:45;;;;;;;7.90;3.83;;;-0.50;99.90;;;;;;5052235;28;20040;-65
2024/01/29 04:16:11;;;;;;;7.88;3.53;;;-0.50;99.90;;;;;;5052029;28;20052;-64
2024/01/29 04:18:40;;;;;;;7.18;3.53;;;-0.60;99.90;;;;;;5049888;28;20025;-65
2024/01/29 04:21:06;;;;;;;6.30;2.92;;;-0.60;99.90;;;;;;5030275;28;20040;-64
2024/01/29 04:23:35;;;;;;;3.38;1.98;;;-0.60;99.90;;;;;;5029939;28;20036;-64
2024/01/29 04:26:01;;;;;;;6.95;2.15;;;-0.70;99.90;;;;;;5023608;28;20025;-64
2024/01/29 04:28:27;;;;;;;4.40;2.17;;;-0.80;99.90;;;;;;5026747;28;20492;-64
2024/01/29 04:30:53;;;;;;;6.07;3.13;;;-0.80;99.90;;;;;;5030838;28;20030;-64
2024/01/29 04:33:19;;;;;;;7.03;2.92;;;-0.70;99.90;;;;;;5016246;28;20544;-64
2024/01/29 04:35:45;;;;;;;4.45;2.83;;;-0.70;99.90;;;;;;5032040;28;20037;-64
2024/01/29 04:38:10;;;;;;;4.25;2.50;;;-0.80;99.90;;;;;;5027287;28;20575;-64
2024/01/29 04:40:39;;;;;;;4.70;2.28;;;-0.80;99.90;;;;;;5026994;28;20072;-65
2024/01/29 04:43:05;;;;;;;5.57;3.00;;;-0.80;99.90;;;;;;5029462;28;20045;-66
2024/01/29 04:45:31;;;;;;;7.70;3.63;;;-0.80;99.90;;;;;;5028014;28;20056;-68
2024/01/29 04:47:56;;;;;;;6.85;3.90;;;-0.80;99.90;;;;;;5030700;28;20119;-66
2024/01/29 04:50:22;;;;;;;6.57;3.53;;;-0.80;99.90;;;;;;5027349;28;20026;-66
2024/01/29 04:52:48;;;;;;;7.05;4.32;;;-0.70;99.90;;;;;;5032833;28;20067;-63
2024/01/29 04:55:14;;;;;;;5.82;3.47;;;-0.60;99.90;;;;;;5011496;28;20040;-63
2024/01/29 04:57:41;;;;;;;3.38;2.90;;;-0.70;99.90;;;;;;5027260;28;20444;-66
2024/01/29 05:00:08;;;;;;;4.47;2.42;;;-0.70;99.90;;;;;;5010415;28;20025;-66
2024/01/29 05:02:35;;;;;;;4.85;2.30;;;-0.80;99.90;;;;;;5026003;28;20037;-65
2024/01/29 05:05:01;;;;;;;2.42;1.88;;;-0.80;99.90;;;;;;5027733;28;20048;-68
2024/01/29 05:07:26;;;;;;;4.07;2.20;;;-1.00;99.90;;;;;;5008382;28;20493;-68
2024/01/29 05:09:52;;;;;;;6.30;2.47;;;-1.10;99.90;;;;;;5026372;28;20037;-68
2024/01/29 05:12:18;;;;;;;5.72;2.50;;;-1.10;99.90;;;;;;5034839;28;20029;-66
2024/01/29 05:14:43;;;;;;;7.63;2.40;;;-1.10;99.90;;;;;;5030719;28;20056;-65
2024/01/29 05:17:09;;;;;;;5.80;2.20;;;-1.00;99.90;;;;;;5022376;28;20484;-68
2024/01/29 05:19:35;;;;;;;5.03;2.85;;;-1.00;99.90;;;;;;5036308;28;20048;-68
2024/01/29 05:22:01;;;;;;;5.00;2.30;;;-1.00;99.90;;;;;;5047623;28;20055;-69
2024/01/29 05:24:27;;;;;;;4.20;2.40;;;-1.00;99.90;;;;;;5046493;28;20097;-68
2024/01/29 05:26:53;;;;;;;4.70;2.90;;;-1.00;99.90;;;;;;5043610;28;20127;-68
2024/01/29 05:29:19;;;;;;;38.40;4.53;;;-0.90;99.90;;;;;;5041544;28;20803;-67
2024/01/29 05:31:44;;;;;;;4.80;2.80;;;-0.90;99.90;;;;;;5042388;28;20133;-68
2024/01/29 05:34:10;;;;;;;6.82;2.65;;;-0.90;99.90;;;;;;5046141;28;20049;-68
2024/01/29 05:36:35;;;;;;;7.47;3.47;;;-0.80;99.90;;;;;;5043203;28;20060;-68
2024/01/29 05:39:01;;;;;;;7.15;3.60;;;-0.80;99.90;;;;;;5046907;28;20051;-68
2024/01/29 05:41:27;;;;;;;33.75;17.08;;;-0.80;99.90;;;;;;5048850;28;20040;-68
2024/01/29 05:43:52;;;;;;;38.20;19.10;;;-0.80;99.90;;;;;;5045289;28;20041;-68
2024/01/29 05:46:18;;;;;;;34.42;17.20;;;-0.70;99.90;;;;;;5041826;28;20086;-68
2024/01/29 05:48:43;;;;;;;28.92;16.75;;;-0.70;99.90;;;;;;5029283;28;20032;-68
2024/01/29 05:51:09;;;;;;;21.63;12.55;;;-0.60;99.90;;;;;;5049959;28;20127;-68
2024/01/29 05:53:34;;;;;;;20.40;12.18;;;-0.60;99.90;;;;;;5050940;28;20040;-68
2024/01/29 05:56:02;;;;;;;46.28;14.68;;;-0.60;99.90;;;;;;5044812;28;20060;-68
2024/01/29 05:58:32;;;;;;;23.05;11.38;;;-0.70;99.90;;;;;;5044570;28;20028;-68
2024/01/29 06:00:59;;;;;;;20.13;10.88;;;-0.70;99.90;;;;;;5048069;28;20029;-68
2024/01/29 06:03:25;;;;;;;18.55;10.75;;;-0.90;99.90;;;;;;5038995;28;20044;-68
2024/01/29 06:05:51;;;;;;;20.38;11.05;;;-0.80;99.90;;;;;;5042445;28;20043;-66
2024/01/29 06:08:16;;;;;;;39.08;13.68;;;-0.80;99.90;;;;;;5036369;28;20029;-67
2024/01/29 06:10:42;;;;;;;20.58;10.30;;;-0.80;99.90;;;;;;5038366;28;20945;-67
2024/01/29 06:13:08;;;;;;;11.75;6.40;;;-0.80;99.90;;;;;;5040056;28;20024;-67
2024/01/29 06:15:34;;;;;;;29.50;14.27;;;-0.80;99.90;;;;;;5037580;28;20017;-67
2024/01/29 06:17:59;;;;;;;32.30;16.20;;;-0.90;99.90;;;;;;5037684;28;20024;-67
2024/01/29 06:20:25;;;;;;;32.70;14.65;;;-0.90;99.90;;;;;;5040410;28;20151;-68
2024/01/29 06:22:51;;;;;;;36.88;18.92;;;-0.80;99.90;;;;;;5041485;28;20106;-67
2024/01/29 06:25:19;;;;;;;12.15;6.10;;;-0.80;99.90;;;;;;5035683;28;20025;-67
2024/01/29 06:27:46;;;;;;;6.28;3.53;;;-0.80;99.90;;;;;;5039384;28;20349;-67
2024/01/29 06:30:12;;;;;;;3.78;2.65;;;-0.80;99.90;;;;;;5037815;28;20036;-67
2024/01/29 06:32:38;;;;;;;4.43;2.47;;;-0.90;99.90;;;;;;5043034;28;20115;-67
2024/01/29 06:35:03;;;;;;;2.65;2.30;;;-1.00;99.90;;;;;;5041926;28;20032;-67
2024/01/29 06:37:29;;;;;;;4.38;2.58;;;-1.00;99.90;;;;;;5039134;28;20500;-67
2024/01/29 06:39:55;;;;;;;5.32;3.28;;;-1.20;99.90;;;;;;5040581;28;20374;-67
2024/01/29 06:42:20;;;;;;;4.88;3.60;;;-1.30;99.90;;;;;;5041758;28;20058;-67
2024/01/29 06:44:46;;;;;;;8.18;4.57;;;-1.30;99.90;;;;;;5040155;28;20021;-68
2024/01/29 06:47:12;;;;;;;6.10;4.00;;;-1.40;99.90;;;;;;5042062;28;20028;-66
2024/01/29 06:49:37;;;;;;;11.40;7.65;;;-1.30;99.90;;;;;;5053148;28;20055;-66
2024/01/29 06:52:03;;;;;;;12.07;8.13;;;-1.30;99.90;;;;;;5048739;28;20043;-66
2024/01/29 06:54:29;;;;;;;10.75;6.30;;;-1.20;99.90;;;;;;5054238;28;20089;-66
2024/01/29 06:56:55;;;;;;;19.10;10.63;;;-1.20;99.90;;;;;;5054670;28;20543;-66
2024/01/29 06:59:23;;;;;;;13.90;9.45;;;-1.10;99.90;;;;;;5056056;28;20040;-66
2024/01/29 07:01:49;;;;;;;35.92;20.35;;;-1.00;99.90;;;;;;5048278;28;20060;-66
2024/01/29 07:04:15;;;;;;;149.40;73.05;;;-0.90;99.90;;;;;;5054880;28;20395;-66
2024/01/29 07:06:40;;;;;;;78.60;42.42;;;-0.80;99.90;;;;;;5050671;28;20590;-66
2024/01/29 07:09:06;;;;;;;85.63;43.88;;;-0.60;99.90;;;;;;5051370;28;20068;-68
2024/01/29 07:11:33;;;;;;;66.05;36.70;;;-0.50;99.90;;;;;;5046969;28;20086;-66
2024/01/29 07:13:58;;;;;;;51.67;28.85;;;-0.50;99.90;;;;;;5030990;28;20036;-67
2024/01/29 07:16:24;;;;;;;50.42;30.30;;;-0.50;99.90;;;;;;5052410;28;20024;-67
2024/01/29 07:18:49;;;;;;;49.95;30.00;;;-0.40;99.90;;;;;;5053691;28;20033;-67
2024/01/29 07:21:15;;;;;;;39.00;23.70;;;-0.30;99.90;;;;;;5051060;28;20284;-67
2024/01/29 07:23:40;;;;;;;32.50;19.70;;;-0.20;99.90;;;;;;5049663;28;20052;-67
2024/01/29 07:26:06;;;;;;;28.80;18.38;;;-0.20;99.90;;;;;;5052451;28;20060;-67
2024/01/29 07:28:32;;;;;;;32.80;20.52;;;-0.20;99.90;;;;;;5053598;28;20032;-68
2024/01/29 07:30:57;;;;;;;28.05;17.52;;;-0.20;99.90;;;;;;5052902;28;20047;-67
2024/01/29 07:33:23;;;;;;;26.35;18.25;;;-0.20;99.90;;;;;;5046152;28;20143;-67
2024/01/29 07:35:49;;;;;;;28.75;17.45;;;-0.10;99.90;;;;;;5052809;28;20574;-66
2024/01/29 07:38:15;;;;;;;33.05;20.83;;;0.10;99.90;;;;;;5052671;28;20170;-67
2024/01/29 07:40:41;;;;;;;29.65;19.95;;;0.30;99.90;;;;;;5055418;28;20167;-66
2024/01/29 07:43:06;;;;;;;30.02;19.77;;;0.50;99.90;;;;;;5051378;28;20040;-67
2024/01/29 07:45:32;;;;;;;31.08;21.63;;;0.80;99.90;;;;;;5052023;28;20025;-66
2024/01/29 07:47:59;;;;;;;35.17;23.20;;;1.10;99.90;;;;;;5054871;28;20039;-67
2024/01/29 07:50:24;;;;;;;36.22;21.90;;;1.30;99.90;;;;;;5052131;28;20033;-67
2024/01/29 07:52:50;;;;;;;29.00;19.05;;;1.60;99.90;;;;;;5051883;28;20842;-67
2024/01/29 07:55:16;;;;;;;29.25;20.65;;;1.70;99.90;;;;;;5052168;28;20031;-67
2024/01/29 07:57:42;;;;;;;30.55;20.25;;;1.90;99.90;;;;;;5055100;28;20044;-67
2024/01/29 08:00:08;;;;;;;26.48;19.77;;;2.10;99.90;;;;;;5052577;28;20175;-67
2024/01/29 08:02:34;;;;;;;34.28;20.90;;;2.20;99.90;;;;;;5047709;28;20033;-67
2024/01/29 08:05:00;;;;;;;32.03;21.42;;;2.30;99.90;;;;;;5052263;28;20630;-67
2024/01/29 08:07:26;;;;;;;31.98;20.27;;;2.40;99.90;;;;;;5055303;28;20036;-67
2024/01/29 08:09:52;;;;;;;30.63;20.65;;;2.40;99.90;;;;;;5054275;28;20041;-67
2024/01/29 08:12:19;;;;;;;28.63;19.52;;;2.50;99.90;;;;;;5052719;28;20033;-66
2024/01/29 08:14:45;;;;;;;30.33;19.77;;;2.70;99.90;;;;;;5045933;28;20043;-66
2024/01/29 08:17:10;;;;;;;28.33;18.90;;;2.70;99.90;;;;;;5045007;28;20101;-67
2024/01/29 08:19:36;;;;;;;25.58;16.73;;;2.90;99.90;;;;;;5039362;28;20053;-67
2024/01/29 08:22:03;;;;;;;26.58;16.20;;;3.10;99.90;;;;;;5033523;28;20044;-67
2024/01/29 08:24:29;;;;;;;21.02;15.23;;;3.20;99.90;;;;;;5031299;28;20447;-66
2024/01/29 08:26:54;;;;;;;22.27;14.73;;;3.30;99.90;;;;;;5030325;28;20103;-67
2024/01/29 08:29:20;;;;;;;16.05;11.43;;;3.30;99.90;;;;;;5031038;28;20064;-67
2024/01/29 08:31:46;;;;;;;17.73;10.95;;;3.40;99.90;;;;;;5035888;28;20537;-67
2024/01/29 08:34:11;;;;;;;13.10;9.57;;;3.60;99.90;;;;;;5030261;28;20115;-66
2024/01/29 08:36:37;;;;;;;25.45;9.30;;;3.70;99.90;;;;;;5031979;28;20033;-66
2024/01/29 08:39:02;;;;;;;14.23;8.25;;;3.70;99.90;;;;;;5031420;28;20508;-66
2024/01/29 08:41:28;;;;;;;20.70;8.60;;;3.80;99.90;;;;;;5033425;28;20033;-66
2024/01/29 08:43:54;;;;;;;12.43;7.68;;;3.90;99.90;;;;;;5030898;28;20082;-66
2024/01/29 08:46:19;;;;;;;12.88;8.45;;;4.00;99.90;;;;;;5031674;28;20421;-66
2024/01/29 08:48:45;;;;;;;11.90;8.02;;;4.10;99.90;;;;;;5030219;28;20057;-66
2024/01/29 08:51:10;;;;;;;13.70;9.30;;;4.20;99.90;;;;;;5033555;28;20807;-66
2024/01/29 08:53:36;;;;;;;17.67;11.48;;;4.20;99.90;;;;;;5033528;28;20064;-66
2024/01/29 08:56:07;;;;;;;20.05;14.05;;;4.10;99.90;;;;;;5028177;28;20029;-66
2024/01/29 08:58:32;;;;;;;17.90;12.43;;;4.20;99.90;;;;;;5034601;28;20040;-66
2024/01/29 09:00:58;;;;;;;19.17;11.65;;;4.20;99.90;;;;;;5036541;28;20025;-66
2024/01/29 09:03:24;;;;;;;15.32;10.90;;;4.20;99.90;;;;;;5033076;28;20056;-66
2024/01/29 09:05:50;;;;;;;14.48;10.10;;;4.20;99.90;;;;;;5034069;28;20025;-66
2024/01/29 09:08:16;;;;;;;11.40;8.20;;;4.30;99.90;;;;;;5024729;28;20043;-66
2024/01/29 09:10:42;;;;;;;14.70;8.82;;;4.40;99.90;;;;;;5031340;28;20029;-66
2024/01/29 09:13:07;;;;;;;15.98;10.00;;;4.50;99.90;;;;;;5032108;28;20032;-66
2024/01/29 09:15:33;;;;;;;15.32;9.60;;;4.60;99.90;;;;;;5028694;28;20036;-66
2024/01/29 09:17:58;;;;;;;14.02;9.80;;;4.80;99.90;;;;;;5026819;28;20186;-66
2024/01/29 09:20:27;;;;;;;31.65;20.75;;;4.80;99.90;;;;;;5043391;28;20063;-66
2024/01/29 09:22:53;;;;;;;17.58;10.63;;;4.80;99.90;;;;;;5048577;28;20117;-66
2024/01/29 09:25:19;;;;;;;12.85;8.70;;;4.90;99.90;;;;;;5049119;28;20261;-66
2024/01/29 09:27:44;;;;;;;13.27;6.90;;;5.00;99.90;;;;;;5049326;28;20148;-66
2024/01/29 09:30:10;;;;;;;13.15;7.22;;;5.10;99.90;;;;;;5048199;28;20021;-66
2024/01/29 09:32:36;;;;;;;10.93;7.00;;;5.20;99.90;;;;;;5041475;28;20156;-66
2024/01/29 09:35:01;;;;;;;9.35;6.20;;;5.30;99.90;;;;;;5055000;28;20032;-66
2024/01/29 09:37:27;;;;;;;10.38;6.50;;;5.30;99.90;;;;;;5054394;28;20033;-66
2024/01/29 09:39:53;;;;;;;22.05;14.48;;;5.30;99.90;;;;;;5041814;28;20032;-66
2024/01/29 09:42:20;;;;;;;12.60;7.13;;;5.30;99.90;;;;;;5052350;28;20044;-66
2024/01/29 09:44:49;;;;;;;8.30;6.05;;;5.30;99.90;;;;;;5042777;28;20609;-66
2024/01/29 09:47:16;;;;;;;10.73;6.22;;;5.30;99.90;;;;;;5050548;28;20047;-66
2024/01/29 09:49:42;;;;;;;9.13;5.95;;;5.20;99.90;;;;;;5051832;28;20335;-66
2024/01/29 09:52:12;;;;;;;9.18;6.10;;;5.20;99.90;;;;;;5053985;28;20039;-66
2024/01/29 09:54:39;;;;;;;11.63;7.18;;;5.10;99.90;;;;;;5048226;28;20573;-66
2024/01/29 09:57:06;;;;;;;9.80;6.55;;;5.10;99.90;;;;;;5048559;28;20072;-66
2024/01/29 09:59:32;;;;;;;9.75;5.57;;;5.10;99.90;;;;;;5054414;28;20032;-66
2024/01/29 10:02:00;;;;;;;10.82;6.50;;;5.20;99.90;;;;;;5056492;28;20044;-66
2024/01/29 10:04:26;;;;;;;12.65;8.15;;;5.30;99.90;;;;;;5051200;28;20024;-66
2024/01/29 10:06:51;;;;;;;8.50;5.53;;;5.40;99.90;;;;;;5048082;28;20072;-66
2024/01/29 10:09:17;;;;;;;9.65;6.82;;;5.40;99.90;;;;;;5050595;28;20087;-66
2024/01/29 10:11:43;;;;;;;5.22;3.22;;;5.50;99.90;;;;;;5053970;28;20485;-66
2024/01/29 10:14:09;;;;;;;4.25;2.63;;;5.70;99.90;;;;;;5053219;28;20022;-66
2024/01/29 10:16:34;;;;;;;4.75;3.20;;;5.70;99.90;;;;;;5049871;28;20127;-66
2024/01/29 10:19:01;;;;;;;4.30;2.65;;;5.90;99.90;;;;;;5056438;28;20059;-65
2024/01/29 10:21:32;;;;;;;5.50;3.10;;;6.00;99.90;;;;;;5051609;28;20094;-66
2024/01/29 10:23:58;;;;;;;8.32;3.90;;;6.10;99.90;;;;;;5055305;28;20135;-68
2024/01/29 10:26:24;;;;;;;6.03;3.40;;;6.20;99.90;;;;;;5049599;28;20025;-67
2024/01/29 10:29:03;;;;;;;7.78;5.20;;;6.20;99.90;;;;;;5055774;28;20028;-67
2024/01/29 10:31:30;;;;;;;4.28;2.53;;;6.30;99.90;;;;;;5054257;28;20305;-67
2024/01/29 10:33:55;;;;;;;3.88;2.47;;;6.40;99.90;;;;;;5058333;28;20083;-67
2024/01/29 10:36:21;;;;;;;4.75;2.42;;;6.40;99.90;;;;;;5054313;28;20755;-67
2024/01/29 10:38:47;;;;;;;3.80;2.53;;;6.40;99.90;;;;;;5058757;28;20035;-67
2024/01/29 10:41:17;;;;;;;2.88;2.10;;;6.50;99.90;;;;;;5055993;28;20550;-66
2024/01/29 10:43:51;;;;;;;2.95;2.17;;;6.50;99.90;;;;;;5050288;28;20033;-67
2024/01/29 10:46:21;;;;;;;4.55;2.80;;;6.60;99.90;;;;;;5049366;28;20107;-67
2024/01/29 10:48:48;;;;;;;4.05;2.30;;;6.60;99.90;;;;;;5050133;28;20025;-67
2024/01/29 10:51:15;;;;;;;3.45;2.90;;;6.60;99.90;;;;;;5049919;28;20037;-67
2024/01/29 10:53:42;;;;;;;4.50;3.15;;;6.70;99.90;;;;;;5052066;28;20572;-66
2024/01/29 10:56:09;;;;;;;5.13;2.50;;;6.70;99.90;;;;;;5056783;28;20415;-67
2024/01/29 10:58:36;;;;;;;10.82;3.20;;;6.70;99.90;;;;;;5047762;28;20051;-67
2024/01/29 11:01:03;;;;;;;11.65;3.78;;;6.70;99.90;;;;;;5046166;28;20112;-66
2024/01/29 11:03:30;;;;;;;5.68;3.17;;;6.70;99.90;;;;;;5049934;28;20475;-66
2024/01/29 11:06:17;;;;;;;4.78;3.15;;;6.70;99.90;;;;;;5053716;28;20034;-67
2024/01/29 11:08:47;;;;;;;5.85;3.83;;;6.70;99.90;;;;;;5048049;28;20481;-66
2024/01/29 11:11:13;;;;;;;6.68;4.65;;;6.70;99.90;;;;;;5052225;28;20379;-67
2024/01/29 11:13:39;;;;;;;6.32;3.50;;;6.70;99.90;;;;;;5052804;28;20035;-66
2024/01/29 11:16:08;;;;;;;4.53;3.30;;;6.80;99.90;;;;;;5052265;28;21048;-67
2024/01/29 11:18:34;;;;;;;7.88;4.45;;;6.90;99.90;;;;;;5047343;28;20587;-66
2024/01/29 11:21:00;;;;;;;6.50;4.43;;;6.90;99.90;;;;;;5053026;28;20040;-67
2024/01/29 11:23:28;;;;;;;5.95;4.60;;;6.80;99.90;;;;;;5036975;28;20047;-66
2024/01/29 11:25:58;;;;;;;6.13;3.42;;;6.80;99.90;;;;;;5052947;28;20040;-73
2024/01/29 11:28:27;;;;;;;25.95;4.80;;;6.80;99.90;;;;;;5048233;28;20047;-66
2024/01/29 11:30:53;;;;;;;4.55;3.20;;;6.90;99.90;;;;;;5046423;28;20017;-66
2024/01/29 11:33:19;;;;;;;4.88;3.45;;;6.90;99.90;;;;;;5053843;28;20033;-66
2024/01/29 11:35:45;;;;;;;8.20;4.38;;;7.00;99.90;;;;;;5059354;28;20036;-66
2024/01/29 11:38:13;;;;;;;4.97;3.65;;;7.00;99.90;;;;;;5054657;28;20039;-66
2024/01/29 11:40:43;;;;;;;5.75;3.45;;;7.00;99.90;;;;;;5059024;28;20055;-66
2024/01/29 11:43:19;;;;;;;5.20;3.40;;;7.10;99.90;;;;;;5055295;28;20115;-66
2024/01/29 11:45:53;;;;;;;6.28;3.60;;;7.10;99.90;;;;;;5054880;28;20037;-66
2024/01/29 11:48:20;;;;;;;5.38;3.70;;;7.10;99.90;;;;;;5054250;28;20018;-66
2024/01/29 11:50:48;;;;;;;6.28;3.35;;;7.10;99.90;;;;;;5052181;28;20046;-66
2024/01/29 11:53:16;;;;;;;8.13;3.40;;;7.20;99.90;;;;;;5052386;28;20074;-66
2024/01/29 11:55:42;;;;;;;4.75;3.47;;;7.20;99.90;;;;;;5055915;28;20038;-66
2024/01/29 11:58:19;;;;;;;3.50;3.00;;;7.20;99.90;;;;;;5055213;28;20373;-65
2024/01/29 12:00:46;;;;;;;6.78;3.75;;;7.10;99.90;;;;;;5055228;28;20123;-65
2024/01/29 12:03:16;;;;;;;5.28;4.07;;;7.20;99.90;;;;;;5053078;28;20044;-65
2024/01/29 12:05:42;;;;;;;7.35;4.57;;;7.20;99.90;;;;;;5055953;28;20039;-65
2024/01/29 12:08:13;;;;;;;6.20;3.63;;;7.20;99.90;;;;;;5055520;28;20044;-65
2024/01/29 12:10:39;;;;;;;5.72;3.80;;;7.30;99.90;;;;;;5056282;28;20059;-66
2024/01/29 12:13:14;;;;;;;6.47;4.60;;;7.30;99.90;;;;;;5058066;28;20480;-66
2024/01/29 12:15:40;;;;;;;6.28;4.13;;;7.40;99.90;;;;;;5055232;28;20197;-66
2024/01/29 12:18:09;;;;;;;4.68;3.60;;;7.40;99.90;;;;;;5047977;28;20035;-66
2024/01/29 12:20:36;;;;;;;7.60;3.72;;;7.40;99.90;;;;;;5053197;28;20048;-66
2024/01/29 12:23:02;;;;;;;6.03;3.42;;;7.40;99.90;;;;;;5047644;28;20040;-66
2024/01/29 12:25:28;;;;;;;8.07;4.30;;;7.50;99.90;;;;;;5055688;28;20025;-66
2024/01/29 12:28:11;;;;;;;5.45;3.97;;;7.60;99.90;;;;;;5048388;28;20033;-65
2024/01/29 12:30:37;;;;;;;8.77;5.07;;;7.60;99.90;;;;;;5055069;28;20032;-66
2024/01/29 12:33:07;;;;;;;7.72;4.47;;;7.60;99.90;;;;;;5056115;28;20020;-66
2024/01/29 12:35:34;;;;;;;6.75;4.60;;;7.70;99.90;;;;;;5053845;28;20136;-66
2024/01/29 12:38:07;;;;;;;7.47;3.80;;;7.60;99.90;;;;;;5057646;28;20640;-66
2024/01/29 12:40:34;;;;;;;6.25;3.33;;;7.60;99.90;;;;;;5049901;28;20109;-66